SBOSBO TLV / LLBG
Speedbird OnlineSpeedbird Online TLV / LLBG

Ben Gurion International Airport
16:19 15.1°C

Location Tel Aviv, Israel
Latitude: 32.01139831542969
Longitude: 34.88669967651367
Web Airport Website | Wikipedia
Altitude 41 Meter / 135 Feet
Distance 3,553 KM / 2,208 Miles
from London.
Time Zone UTC +2 hours (Asia/Jerusalem)
Codes IATA: TLV
ICAO: LLBG
Currency £1 equals ILS 4.28
Runways
RunwayLength (m)Surface
032772Asphalt
084062Asphalt
123112Asphalt
212772Asphalt
264062Asphalt
303112Asphalt
Radio
TypeDescriptionFrequency
APPBen Gurion Approach120.5
ATISATIS132.5
CTRTel Aviv Control121.4
GNDBen Gurion Ground118.05
GNDBen Gurion Ground/Delivery129.2
TWRBen Gurion Tower134.6
Live ATC
METAR LLBG 311350Z 25012KT 9999 FEW030 SCT050 15/10 Q1010 TEMPO RA FEW025TCU RMK RERA
TAF TAF LLBG 311128Z 3112/0112 20014KT 9999 SCT035 TEMPO 3112/3118 20020G30KT 5000 TSRA FEW025CB BKN030 TEMPO 3118/0107 22020G30KT 2500 +TSRA FEW020CB BKN025 FM010700 22020KT 9999 SCT035 PROB40 TEMPO 0107/0112 23025G40KT 7000 RA FEW025TCU BKN030 TX13/3112Z TN10/0103Z
Weather As Of 31 Jan 2023 16:19
Description Scattered clouds
Wind 22 km/h from West (250°)
Cloud Cover 40%
Precipitation Rain: none, Snow: none
Sunrise 06:35
Sunset 17:12
Lounges Dan Lounges B/C , -
Dan Lounge E , International
Rotations During the last 90 days there were
148 flights from LHR
145 flights to LHR



Support Speedbird Online

© 2017-2023 Speedbird Online